Impacts METAR Board
IDs:

KPDX - Portland Intl Arpt, OR, US

Updated at: 2100 UTC 06 Dec 2019
Potential Impact None Slight Moderate High
Time 06/09Z 06/10Z 06/11Z 06/12Z 06/13Z 06/14Z 06/15Z 06/16Z 06/17Z 06/18Z 06/19Z 06/20Z 06/21Z
Temp43 43 40 44 41 42 41 39 43 45 48 49 49
Dewpt37 37 37 38 37 36 37 36 37 38 38 37 37
Altim29.96 29.97 29.96 29.95 29.95 29.94 29.93 29.93 29.94 29.94 29.93 29.91 29.90
VIS10 10 10 10 10 10 10 10 10 9 10 10 10
CIG200 200 250 -- -- -- 250 180 250 210 100 90 80
CoverBKNBKNBKNSCTCLRFEWBKNBKNOVCOVCBKNOVCOVC
FltCatVFRVFRVFRVFRVFRVFRVFRVFRVFRVFRVFRVFRVFR
WX--------------------------
WDir100001050803400310060130120
WSpd3 0 0 4 3 3 3 0 3 0 3 9 10
WGst-- -- -- -- -- -- -- -- -- -- -- -- --
Raw hourly METARs
KPDX 060853Z 10003KT 10SM SCT150 BKN200 06/03 A2996 RMK AO2 SLP145 T00610028 55002
KPDX 060953Z 00000KT 10SM SCT140 BKN200 06/03 A2997 RMK AO2 SLP147 T00610028
KPDX 061053Z 00000KT 10SM FEW200 BKN250 04/03 A2996 RMK AO2 SLP145 T00440028
KPDX 061153Z 01004KT 10SM FEW200 SCT250 07/03 A2995 RMK AO2 SLP142 T00670033 10078 20044 58003
KPDX 061253Z 05003KT 10SM CLR 05/03 A2995 RMK AO2 SLP140 T00500028
KPDX 061353Z 08003KT 10SM FEW250 06/02 A2994 RMK AO2 SLP139 T00560022
KPDX 061453Z 34003KT 10SM FEW180 BKN250 05/03 A2993 RMK AO2 SLP136 T00500028 58007
KPDX 061553Z 00000KT 10SM FEW080 BKN180 BKN250 04/02 A2993 RMK AO2 SLP136 T00390022
KPDX 061653Z 31003KT 10SM FEW080 SCT180 OVC250 06/03 A2994 RMK AO2 SLP139 T00610028
KPDX 061753Z 00000KT 9SM FEW080 SCT150 OVC210 07/03 A2994 RMK AO2 SLP138 T00720033 10072 20033 50003
KPDX 061853Z 06003KT 10SM FEW080 BKN100 BKN210 09/03 A2993 RMK AO2 SLP133 T00890033
KPDX 061953Z 13009KT 10SM BKN090 OVC200 09/03 A2991 RMK AO2 SLP126 T00940028
KPDX 062053Z 12010KT 10SM BKN080 BKN110 OVC180 09/03 A2990 RMK AO2 SLP123 T00940028 56016



Page loaded:  21:08 UTC  |   01:08 PM Pacific  |   02:08 PM Mountain  |   03:08 PM Central  |   04:08 PM Eastern

 

ADVISORIES

FORECASTS

FORECASTS

OBSERVATIONS

USER TOOLS

ABOUT US